createdAt,value
2019-01-30T00:01:22.660Z,11.80
2019-01-30T00:02:22.506Z,10.10
2019-01-30T00:04:15.647Z,9.40
2019-01-30T00:05:15.158Z,9.60
2019-01-30T00:07:07.944Z,9.40
2019-01-30T00:08:07.818Z,9.30
2019-01-30T00:10:00.594Z,8.90
2019-01-30T00:11:00.462Z,9.50
2019-01-30T00:12:53.248Z,9.90
2019-01-30T00:13:53.127Z,10.70
2019-01-30T00:15:55.794Z,9.80
2019-01-30T00:16:45.749Z,9.80
2019-01-30T00:18:38.522Z,9.20
2019-01-30T00:19:38.399Z,9.50
2019-01-30T00:21:31.300Z,8.60
2019-01-30T00:22:31.168Z,8.80
2019-01-30T00:24:24.434Z,9.10
2019-01-30T00:25:24.303Z,9.10
2019-01-30T00:27:17.086Z,9.40
2019-01-30T00:28:16.961Z,8.90
2019-01-30T00:30:09.749Z,8.60
2019-01-30T00:31:09.620Z,8.70
2019-01-30T00:33:02.381Z,7.80
2019-01-30T00:34:02.261Z,7.70
2019-01-30T00:35:56.566Z,8.30
2019-01-30T00:36:56.428Z,9.00
2019-01-30T00:38:49.927Z,8.30
2019-01-30T00:39:49.794Z,8.00
2019-01-30T00:41:42.575Z,8.20
2019-01-30T00:42:42.560Z,8.50
2019-01-30T00:44:35.223Z,8.20
2019-01-30T00:45:35.107Z,8.40
2019-01-30T00:47:27.954Z,8.60
2019-01-30T00:48:27.751Z,7.90
2019-01-30T00:50:20.519Z,7.70
2019-01-30T00:51:20.387Z,7.60
2019-01-30T00:53:13.292Z,7.50
2019-01-30T00:54:13.157Z,8.00
2019-01-30T00:56:06.427Z,8.50
2019-01-30T00:57:06.283Z,8.20
2019-01-30T00:58:59.099Z,8.60
2019-01-30T00:59:58.957Z,7.80
2019-01-30T01:01:51.831Z,7.80
2019-01-30T01:02:51.696Z,7.90
2019-01-30T01:04:44.481Z,7.40
2019-01-30T01:05:44.335Z,7.30
2019-01-30T01:07:37.123Z,6.70
2019-01-30T01:08:36.982Z,7.50
2019-01-30T01:10:31.313Z,7.00
2019-01-30T01:11:31.163Z,6.70
2019-01-30T01:13:23.954Z,6.30
2019-01-30T01:14:23.818Z,6.40
2019-01-30T01:16:16.587Z,6.40
2019-01-30T01:17:16.458Z,6.80
2019-01-30T01:19:09.252Z,6.60
2019-01-30T01:20:09.113Z,6.30
2019-01-30T01:22:01.890Z,6.60
2019-01-30T01:23:01.753Z,6.80
2019-01-30T01:24:55.066Z,6.60
2019-01-30T01:25:54.915Z,6.30
2019-01-30T01:27:47.699Z,6.50
2019-01-30T01:28:47.582Z,6.80
2019-01-30T01:30:40.428Z,6.30
2019-01-30T01:31:40.230Z,6.50
2019-01-30T01:33:32.988Z,6.50
2019-01-30T01:34:32.856Z,7.00
2019-01-30T01:36:25.639Z,6.50
2019-01-30T01:37:25.498Z,6.70
2019-01-30T01:39:18.383Z,6.70
2019-01-30T01:40:18.271Z,6.30
2019-01-30T01:42:11.048Z,6.50
2019-01-30T01:43:10.903Z,6.10
2019-01-30T01:45:03.693Z,7.00
2019-01-30T01:46:03.549Z,6.60
2019-01-30T01:47:56.446Z,6.60
2019-01-30T01:48:56.305Z,6.80
2019-01-30T01:50:49.190Z,6.80
2019-01-30T01:51:49.047Z,7.00
2019-01-30T01:53:41.947Z,6.50
2019-01-30T01:54:41.792Z,6.30
2019-01-30T01:56:35.105Z,6.90
2019-01-30T01:57:34.963Z,6.80
2019-01-30T01:59:27.741Z,6.30
2019-01-30T02:00:35.165Z,6.40
2019-01-30T02:02:20.401Z,6.70
2019-01-30T02:03:20.247Z,6.30
2019-01-30T02:05:13.019Z,6.30
2019-01-30T02:06:12.892Z,6.60
2019-01-30T02:08:06.637Z,6.40
2019-01-30T02:09:05.543Z,6.10
2019-01-30T02:10:59.140Z,6.10
2019-01-30T02:11:59.001Z,6.50
2019-01-30T02:13:51.911Z,6.30
2019-01-30T02:14:51.755Z,5.90
2019-01-30T02:16:44.554Z,6.40
2019-01-30T02:17:44.412Z,5.90
2019-01-30T02:19:37.293Z,6.30
2019-01-30T02:20:37.159Z,6.00
2019-01-30T02:22:30.044Z,6.90
2019-01-30T02:23:29.895Z,6.90
2019-01-30T02:25:22.686Z,6.90
2019-01-30T02:26:22.559Z,6.60
2019-01-30T02:28:15.356Z,6.80
2019-01-30T02:29:15.195Z,6.40
2019-01-30T02:31:08.086Z,6.30
2019-01-30T02:32:07.953Z,6.50
2019-01-30T02:34:00.832Z,6.60
2019-01-30T02:35:00.696Z,6.30
2019-01-30T02:36:53.481Z,6.30
2019-01-30T02:37:53.343Z,6.20
2019-01-30T02:39:46.156Z,6.00
2019-01-30T02:40:46.003Z,6.00
2019-01-30T02:42:38.873Z,5.70
2019-01-30T02:43:38.739Z,6.10
2019-01-30T02:45:31.953Z,6.00
2019-01-30T02:46:31.797Z,6.00
2019-01-30T02:48:24.759Z,5.70
2019-01-30T02:49:24.555Z,6.10
2019-01-30T02:51:17.461Z,6.00
2019-01-30T02:52:17.298Z,5.90
2019-01-30T02:54:10.176Z,6.10
2019-01-30T02:55:10.042Z,6.10
2019-01-30T02:57:02.848Z,6.20
2019-01-30T02:58:02.704Z,6.10
2019-01-30T02:59:55.579Z,6.50
2019-01-30T03:00:59.419Z,6.90
2019-01-30T03:02:48.215Z,6.20
2019-01-30T03:03:48.096Z,6.10
2019-01-30T03:05:41.008Z,5.70
2019-01-30T03:06:40.837Z,5.90
2019-01-30T03:08:33.628Z,5.80
2019-01-30T03:09:33.482Z,5.80
2019-01-30T03:11:26.373Z,5.90
2019-01-30T03:12:26.238Z,6.20
2019-01-30T03:14:19.027Z,7.00
2019-01-30T03:15:18.894Z,8.10
2019-01-30T03:17:11.788Z,6.80
2019-01-30T03:18:11.636Z,7.20
2019-01-30T03:20:04.421Z,7.20
2019-01-30T03:21:04.280Z,7.20
2019-01-30T03:22:57.159Z,6.80
2019-01-30T03:23:57.057Z,6.50
2019-01-30T03:25:49.912Z,7.50
2019-01-30T03:26:49.778Z,6.90
2019-01-30T03:28:42.572Z,6.50
2019-01-30T03:29:42.428Z,6.00
2019-01-30T03:31:35.319Z,6.10
2019-01-30T03:32:35.196Z,6.10
2019-01-30T03:34:28.075Z,6.00
2019-01-30T03:35:27.921Z,6.00
2019-01-30T03:37:20.717Z,6.30
2019-01-30T03:38:20.575Z,5.40
2019-01-30T03:40:13.563Z,6.20
2019-01-30T03:41:13.425Z,6.40
2019-01-30T03:43:06.522Z,5.70
2019-01-30T03:44:06.381Z,5.70
2019-01-30T03:45:59.255Z,6.10
2019-01-30T03:46:59.141Z,6.10
2019-01-30T03:48:52.025Z,6.00
2019-01-30T03:49:51.894Z,6.50
2019-01-30T03:51:44.767Z,6.20
2019-01-30T03:52:44.632Z,6.20
2019-01-30T03:54:37.507Z,5.50
2019-01-30T03:55:37.379Z,5.90
2019-01-30T03:57:30.301Z,5.80
2019-01-30T03:58:30.127Z,6.10
2019-01-30T04:00:23.012Z,5.80
2019-01-30T04:01:26.729Z,6.10
2019-01-30T04:03:15.773Z,6.10
2019-01-30T04:04:15.637Z,5.90
2019-01-30T04:06:08.494Z,5.90
2019-01-30T04:07:08.385Z,6.30
2019-01-30T04:09:01.263Z,6.10
2019-01-30T04:10:01.123Z,6.10
2019-01-30T04:11:54.015Z,6.20
2019-01-30T04:12:53.929Z,5.90
2019-01-30T04:14:47.280Z,6.50
2019-01-30T04:15:47.140Z,6.50
2019-01-30T04:17:40.040Z,6.40
2019-01-30T04:18:39.890Z,6.10
2019-01-30T04:20:32.768Z,6.10
2019-01-30T04:21:32.662Z,5.80
2019-01-30T04:23:25.540Z,5.60
2019-01-30T04:24:25.388Z,6.10
2019-01-30T04:26:18.327Z,6.10
2019-01-30T04:27:18.140Z,5.70
2019-01-30T04:29:11.102Z,6.30
2019-01-30T04:30:10.896Z,6.30
2019-01-30T04:32:03.775Z,6.00
2019-01-30T04:33:03.640Z,5.80
2019-01-30T04:34:56.536Z,6.60
2019-01-30T04:35:56.380Z,6.70
2019-01-30T04:37:49.272Z,6.30
2019-01-30T04:38:49.141Z,6.90
2019-01-30T04:40:42.002Z,6.60
2019-01-30T04:41:41.888Z,6.50
2019-01-30T04:43:34.834Z,6.80
2019-01-30T04:44:34.630Z,6.70
2019-01-30T04:46:27.512Z,6.60
2019-01-30T04:47:27.400Z,6.40
2019-01-30T04:49:20.820Z,6.70
2019-01-30T04:50:20.687Z,6.60
2019-01-30T04:52:13.539Z,6.90
2019-01-30T04:53:13.493Z,6.60
2019-01-30T04:55:06.275Z,7.10
2019-01-30T04:56:06.154Z,7.10
2019-01-30T04:57:59.047Z,6.80
2019-01-30T04:58:58.904Z,6.60
2019-01-30T05:00:51.784Z,6.80
2019-01-30T05:01:51.653Z,7.10
2019-01-30T05:03:44.540Z,7.20
2019-01-30T05:04:44.389Z,7.70
2019-01-30T05:06:37.281Z,8.20
2019-01-30T05:07:37.136Z,7.30
2019-01-30T05:09:30.018Z,7.70
2019-01-30T05:10:29.885Z,7.50
2019-01-30T05:12:22.792Z,8.20
2019-01-30T05:13:22.646Z,9.10
2019-01-30T05:15:15.547Z,9.10
2019-01-30T05:16:15.403Z,8.90
2019-01-30T05:18:08.380Z,8.90
2019-01-30T05:19:08.243Z,9.10
2019-01-30T05:21:01.136Z,9.80
2019-01-30T05:22:00.986Z,10.10
2019-01-30T05:23:53.897Z,10.50
2019-01-30T05:24:53.761Z,9.90
2019-01-30T05:26:46.644Z,10.20
2019-01-30T05:27:46.489Z,9.60
2019-01-30T05:29:39.372Z,9.70
2019-01-30T05:30:39.240Z,10.00
2019-01-30T05:32:32.129Z,10.30
2019-01-30T05:33:31.998Z,9.70
2019-01-30T05:35:24.882Z,10.70
2019-01-30T05:36:24.772Z,10.20
2019-01-30T05:38:17.644Z,10.60
2019-01-30T05:39:17.515Z,10.50
2019-01-30T05:41:10.370Z,10.00
2019-01-30T05:42:10.255Z,10.80
2019-01-30T05:44:03.140Z,11.50
2019-01-30T05:45:02.998Z,11.50
2019-01-30T05:46:55.874Z,11.00
2019-01-30T05:47:55.746Z,11.30
2019-01-30T05:49:48.613Z,10.90
2019-01-30T05:50:48.484Z,11.60
2019-01-30T05:52:41.362Z,11.30
2019-01-30T05:53:41.249Z,11.10
2019-01-30T05:55:34.128Z,10.60
2019-01-30T05:56:33.985Z,11.00
2019-01-30T05:58:27.056Z,11.50
2019-01-30T05:59:26.743Z,11.60
2019-01-30T06:01:19.650Z,12.10
2019-01-30T06:02:19.518Z,11.90
2019-01-30T06:04:12.378Z,12.10
2019-01-30T06:05:12.240Z,11.50
2019-01-30T06:07:05.131Z,11.70
2019-01-30T06:08:05.008Z,12.00
2019-01-30T06:09:57.886Z,11.40
2019-01-30T06:10:57.755Z,12.20
2019-01-30T06:12:50.629Z,11.30
2019-01-30T06:13:50.480Z,11.20
2019-01-30T06:15:43.363Z,12.20
2019-01-30T06:16:43.236Z,11.40
2019-01-30T06:18:36.119Z,11.80
2019-01-30T06:19:35.982Z,11.00
2019-01-30T06:21:28.862Z,11.20
2019-01-30T06:22:28.730Z,11.60
2019-01-30T06:24:21.743Z,11.40
2019-01-30T06:25:21.586Z,11.90
2019-01-30T06:27:14.495Z,11.50
2019-01-30T06:28:14.365Z,11.50
2019-01-30T06:30:07.219Z,11.30
2019-01-30T06:31:07.083Z,11.20
2019-01-30T06:32:59.972Z,12.00
2019-01-30T06:33:59.832Z,11.50
2019-01-30T06:35:52.935Z,12.10
2019-01-30T06:36:52.783Z,11.70
2019-01-30T06:38:45.690Z,12.20
2019-01-30T06:39:45.541Z,12.20
2019-01-30T06:41:38.433Z,12.10
2019-01-30T06:42:38.283Z,12.00
2019-01-30T06:44:31.179Z,12.30
2019-01-30T06:45:31.118Z,11.60
2019-01-30T06:47:23.947Z,12.90
2019-01-30T06:48:23.783Z,12.70
2019-01-30T06:50:16.699Z,12.70
2019-01-30T06:51:16.562Z,13.10
2019-01-30T06:53:09.435Z,13.60
2019-01-30T06:54:09.293Z,12.80
2019-01-30T06:56:02.183Z,13.50
2019-01-30T06:57:02.035Z,12.90
2019-01-30T06:58:54.927Z,13.10
2019-01-30T06:59:54.839Z,12.60
2019-01-30T07:01:47.701Z,12.50
2019-01-30T07:02:47.536Z,13.60
2019-01-30T07:04:40.439Z,12.90
2019-01-30T07:05:40.278Z,13.30
2019-01-30T07:07:33.160Z,13.30
2019-01-30T07:08:33.044Z,13.40
2019-01-30T07:10:25.927Z,12.80
2019-01-30T07:11:25.784Z,12.80
2019-01-30T07:13:18.676Z,12.70
2019-01-30T07:14:18.647Z,13.30
2019-01-30T07:16:11.439Z,13.10
2019-01-30T07:17:11.290Z,13.10
2019-01-30T07:19:04.196Z,13.30
2019-01-30T07:20:04.042Z,12.70
2019-01-30T07:21:56.926Z,13.80
2019-01-30T07:22:56.784Z,13.30
2019-01-30T07:24:49.670Z,13.00
2019-01-30T07:25:49.552Z,13.20
2019-01-30T07:27:42.412Z,13.60
2019-01-30T07:28:42.296Z,14.00
2019-01-30T07:30:35.168Z,13.30
2019-01-30T07:31:35.038Z,14.20
2019-01-30T07:33:27.930Z,13.70
2019-01-30T07:34:27.786Z,15.10
2019-01-30T07:36:20.669Z,14.10
2019-01-30T07:37:20.558Z,14.50
2019-01-30T07:39:13.420Z,14.60
2019-01-30T07:40:13.297Z,15.10
2019-01-30T07:42:06.190Z,16.10
2019-01-30T07:43:06.040Z,23.50
2019-01-30T07:44:58.921Z,17.80
2019-01-30T07:45:58.781Z,17.80
2019-01-30T07:47:51.687Z,18.40
2019-01-30T07:48:51.529Z,17.40
2019-01-30T07:50:44.414Z,15.10
2019-01-30T07:51:44.283Z,14.20
2019-01-30T07:53:37.184Z,14.90
2019-01-30T07:54:37.027Z,14.70
2019-01-30T07:56:29.936Z,14.60
2019-01-30T07:57:29.787Z,15.10
2019-01-30T07:59:22.664Z,15.10
2019-01-30T08:00:22.531Z,15.10
2019-01-30T08:02:16.031Z,15.80
2019-01-30T08:03:15.907Z,15.30
2019-01-30T08:05:08.781Z,15.00
2019-01-30T08:06:08.644Z,15.50
2019-01-30T08:08:01.554Z,15.30
2019-01-30T08:09:01.387Z,14.60
2019-01-30T08:10:54.269Z,14.80
2019-01-30T08:11:54.143Z,15.40
2019-01-30T08:13:47.030Z,15.60
2019-01-30T08:14:46.883Z,15.20
2019-01-30T08:16:39.781Z,15.10
2019-01-30T08:17:39.637Z,15.20
2019-01-30T08:19:32.523Z,15.60
2019-01-30T08:20:32.388Z,15.30
2019-01-30T08:22:25.283Z,15.40
2019-01-30T08:23:25.186Z,15.90
2019-01-30T08:25:18.089Z,15.20
2019-01-30T08:26:18.142Z,15.90
2019-01-30T08:28:10.936Z,15.50
2019-01-30T08:29:10.845Z,15.10
2019-01-30T08:31:03.738Z,14.30
2019-01-30T08:32:03.750Z,15.50
2019-01-30T08:33:56.272Z,15.10
2019-01-30T08:34:56.140Z,15.40
2019-01-30T08:36:49.026Z,15.00
2019-01-30T08:37:48.894Z,15.00
2019-01-30T08:39:41.771Z,15.10
2019-01-30T08:40:41.647Z,14.90
2019-01-30T08:42:34.536Z,14.90
2019-01-30T08:43:34.382Z,13.80
2019-01-30T08:45:27.263Z,14.50
2019-01-30T08:46:27.146Z,14.60
2019-01-30T08:48:20.013Z,14.70
2019-01-30T08:49:19.883Z,14.20
2019-01-30T08:51:12.760Z,13.70
2019-01-30T08:52:12.636Z,14.40
2019-01-30T08:54:05.628Z,13.90
2019-01-30T08:55:05.490Z,13.60
2019-01-30T08:56:58.392Z,13.90
2019-01-30T08:57:58.240Z,14.80
2019-01-30T08:59:51.157Z,13.70
2019-01-30T09:00:50.987Z,13.40
2019-01-30T09:02:43.874Z,13.90
2019-01-30T09:03:43.734Z,13.90
2019-01-30T09:05:36.624Z,13.20
2019-01-30T09:06:36.484Z,13.10
2019-01-30T09:08:29.384Z,13.00
2019-01-30T09:09:29.231Z,13.40
2019-01-30T09:11:22.151Z,13.40
2019-01-30T09:12:22.017Z,13.50
2019-01-30T09:14:14.879Z,13.50
2019-01-30T09:15:14.742Z,13.40
2019-01-30T09:17:08.719Z,13.20
2019-01-30T09:18:07.477Z,13.20
2019-01-30T09:20:00.428Z,14.90
2019-01-30T09:21:00.233Z,13.60
2019-01-30T09:22:53.136Z,13.80
2019-01-30T09:23:52.993Z,13.70
2019-01-30T09:25:45.883Z,13.90
2019-01-30T09:26:45.732Z,13.40
2019-01-30T09:28:38.631Z,12.50
2019-01-30T09:29:38.483Z,12.60
2019-01-30T09:31:31.372Z,12.70
2019-01-30T09:32:31.257Z,12.70
2019-01-30T09:34:24.154Z,13.00
2019-01-30T09:35:24.045Z,12.90
2019-01-30T09:37:16.898Z,12.90
2019-01-30T09:38:16.732Z,13.00
2019-01-30T09:40:09.632Z,13.60
2019-01-30T09:41:09.493Z,13.40
2019-01-30T09:43:02.375Z,13.20
2019-01-30T09:44:02.245Z,14.10
2019-01-30T09:45:55.651Z,13.80
2019-01-30T09:46:55.513Z,14.30
2019-01-30T09:48:48.507Z,13.20
2019-01-30T09:49:48.257Z,13.90
2019-01-30T09:51:41.129Z,13.80
2019-01-30T09:52:41.005Z,14.20
2019-01-30T09:54:33.897Z,13.90
2019-01-30T09:55:33.757Z,13.50
2019-01-30T09:57:26.617Z,17.20
2019-01-30T09:58:26.548Z,15.80
2019-01-30T10:00:19.398Z,14.80
2019-01-30T10:01:19.237Z,14.10
2019-01-30T10:03:12.111Z,13.90
2019-01-30T10:04:12.040Z,13.80
2019-01-30T10:06:04.883Z,14.90
2019-01-30T10:07:04.739Z,15.80
2019-01-30T10:08:58.155Z,14.20
2019-01-30T10:09:58.001Z,13.90
2019-01-30T10:11:51.365Z,14.20
2019-01-30T10:12:50.754Z,14.60
2019-01-30T10:14:43.633Z,13.70
2019-01-30T10:15:43.519Z,13.80
2019-01-30T10:17:36.394Z,13.40
2019-01-30T10:18:36.278Z,13.90
2019-01-30T10:20:30.078Z,13.90
2019-01-30T10:21:29.988Z,13.20
2019-01-30T10:23:22.804Z,13.60
2019-01-30T10:24:22.693Z,13.80
2019-01-30T10:26:15.582Z,12.60
2019-01-30T10:27:15.424Z,13.00
2019-01-30T10:29:08.307Z,12.00
2019-01-30T10:30:08.187Z,12.40
2019-01-30T10:32:01.072Z,12.70
2019-01-30T10:33:00.927Z,12.60
2019-01-30T10:34:53.802Z,11.90
2019-01-30T10:35:53.674Z,12.50
2019-01-30T10:37:46.569Z,12.00
2019-01-30T10:38:46.439Z,12.10
2019-01-30T10:40:39.336Z,10.80
2019-01-30T10:41:39.186Z,11.30
2019-01-30T10:43:32.054Z,11.40
2019-01-30T10:44:31.931Z,10.50
2019-01-30T10:46:24.799Z,9.80
2019-01-30T10:47:24.681Z,9.80
2019-01-30T10:49:17.558Z,9.90
2019-01-30T10:50:17.435Z,10.40
2019-01-30T10:52:10.296Z,8.90
2019-01-30T10:53:10.230Z,9.30
2019-01-30T10:55:03.625Z,8.50
2019-01-30T10:56:03.469Z,8.90
2019-01-30T10:57:56.327Z,9.90
2019-01-30T10:58:56.193Z,9.70
2019-01-30T11:00:49.081Z,10.30
2019-01-30T11:01:48.934Z,9.10
2019-01-30T11:03:41.821Z,9.70
2019-01-30T11:04:41.685Z,9.30
2019-01-30T11:06:34.555Z,9.80
2019-01-30T11:07:34.425Z,9.80
2019-01-30T11:09:27.315Z,10.30
2019-01-30T11:10:27.175Z,10.90
2019-01-30T11:12:20.058Z,9.50
2019-01-30T11:13:19.925Z,9.80
2019-01-30T11:15:12.814Z,9.00
2019-01-30T11:16:12.673Z,9.80
2019-01-30T11:18:05.559Z,9.90
2019-01-30T11:19:05.428Z,9.60
2019-01-30T11:20:58.329Z,10.00
2019-01-30T11:21:58.225Z,9.70
2019-01-30T11:23:51.063Z,9.70
2019-01-30T11:24:50.926Z,10.10
2019-01-30T11:26:43.815Z,9.90
2019-01-30T11:27:43.725Z,9.30
2019-01-30T11:29:36.567Z,8.60
2019-01-30T11:30:36.425Z,8.70
2019-01-30T11:32:29.317Z,8.10
2019-01-30T11:33:29.173Z,8.80
2019-01-30T11:35:22.065Z,8.00
2019-01-30T11:36:21.927Z,7.90
2019-01-30T11:38:14.840Z,8.10
2019-01-30T11:39:14.681Z,8.20
2019-01-30T11:41:07.590Z,7.80
2019-01-30T11:42:07.427Z,8.40
2019-01-30T11:44:00.316Z,7.30
2019-01-30T11:45:00.191Z,7.10
2019-01-30T11:46:53.074Z,7.80
2019-01-30T11:47:52.927Z,8.20
2019-01-30T11:49:45.808Z,7.80
2019-01-30T11:50:45.673Z,7.40
2019-01-30T11:52:38.554Z,8.00
2019-01-30T11:53:38.430Z,8.40
2019-01-30T11:55:31.322Z,7.80
2019-01-30T11:56:31.175Z,7.70
2019-01-30T11:58:25.602Z,7.40
2019-01-30T11:59:25.478Z,7.30
2019-01-30T12:01:18.345Z,6.40
2019-01-30T12:02:18.210Z,6.30
2019-01-30T12:04:17.669Z,6.70
2019-01-30T12:05:10.867Z,6.90
2019-01-30T12:07:03.735Z,6.80
2019-01-30T12:08:03.617Z,5.90
2019-01-30T12:09:56.393Z,6.00
2019-01-30T12:10:56.264Z,6.30
2019-01-30T12:12:49.035Z,6.00
2019-01-30T12:13:48.956Z,6.60
2019-01-30T12:15:41.900Z,6.80
2019-01-30T12:16:41.647Z,6.60
2019-01-30T12:18:34.434Z,6.60
2019-01-30T12:19:34.315Z,6.20
2019-01-30T12:21:27.085Z,6.20
2019-01-30T12:22:26.962Z,6.10
2019-01-30T12:24:19.742Z,5.90
2019-01-30T12:25:19.589Z,6.00
2019-01-30T12:27:12.381Z,6.20
2019-01-30T12:28:12.281Z,6.60
2019-01-30T12:30:05.028Z,6.90
2019-01-30T12:31:04.897Z,6.70
2019-01-30T12:32:57.663Z,6.30
2019-01-30T12:33:59.164Z,6.70
2019-01-30T12:35:50.425Z,7.10
2019-01-30T12:36:50.290Z,7.50
2019-01-30T12:38:43.177Z,6.70
2019-01-30T12:39:43.031Z,6.30
2019-01-30T12:41:35.901Z,7.00
2019-01-30T12:42:35.685Z,7.70
2019-01-30T12:44:28.980Z,7.50
2019-01-30T12:45:28.855Z,7.60
2019-01-30T12:47:21.651Z,8.10
2019-01-30T12:48:21.489Z,7.60
2019-01-30T12:50:14.281Z,7.80
2019-01-30T12:51:14.168Z,7.30
2019-01-30T12:53:07.431Z,7.40
2019-01-30T12:54:07.302Z,7.40
2019-01-30T12:56:00.099Z,7.20
2019-01-30T12:56:59.957Z,7.50
2019-01-30T12:58:53.131Z,7.20
2019-01-30T12:59:52.995Z,7.30
2019-01-30T13:01:45.803Z,7.00
2019-01-30T13:02:45.655Z,7.30
2019-01-30T13:04:39.095Z,7.90
2019-01-30T13:05:38.308Z,7.00
2019-01-30T13:07:31.068Z,7.60
2019-01-30T13:08:30.950Z,7.10
2019-01-30T13:10:23.946Z,6.50
2019-01-30T13:11:23.800Z,7.00
2019-01-30T13:13:16.653Z,6.40
2019-01-30T13:14:16.441Z,6.80
2019-01-30T13:16:09.234Z,6.60
2019-01-30T13:17:09.082Z,6.70
2019-01-30T13:19:01.862Z,6.80
2019-01-30T13:20:01.743Z,6.30
2019-01-30T13:21:54.524Z,6.00
2019-01-30T13:22:54.388Z,6.40
2019-01-30T13:24:47.163Z,6.50
2019-01-30T13:25:47.029Z,6.80
2019-01-30T13:27:39.808Z,6.50
2019-01-30T13:28:39.688Z,6.40
2019-01-30T13:30:32.462Z,6.40
2019-01-30T13:31:32.326Z,6.10
2019-01-30T13:33:25.128Z,6.40
2019-01-30T13:34:24.986Z,6.00
2019-01-30T13:36:17.752Z,5.80
2019-01-30T13:37:17.622Z,5.80
2019-01-30T13:39:10.392Z,6.10
2019-01-30T13:40:10.272Z,6.20
2019-01-30T13:42:03.145Z,6.10
2019-01-30T13:43:03.007Z,6.00
2019-01-30T13:44:55.791Z,6.10
2019-01-30T13:46:04.997Z,6.70
2019-01-30T13:47:48.510Z,6.40
2019-01-30T13:48:48.334Z,6.60
2019-01-30T13:50:41.235Z,5.50
2019-01-30T13:51:41.085Z,5.90
2019-01-30T13:53:33.831Z,5.70
2019-01-30T13:54:33.814Z,5.50
2019-01-30T13:56:26.502Z,6.00
2019-01-30T13:57:26.359Z,5.90
2019-01-30T13:59:19.124Z,6.30
2019-01-30T14:00:19.029Z,6.00
2019-01-30T14:02:11.907Z,6.10
2019-01-30T14:03:11.787Z,5.50
2019-01-30T14:05:04.575Z,4.90
2019-01-30T14:06:04.433Z,4.90
2019-01-30T14:07:57.171Z,4.70
2019-01-30T14:08:57.076Z,4.70
2019-01-30T14:10:49.843Z,4.30
2019-01-30T14:11:49.695Z,4.70
2019-01-30T14:13:42.471Z,4.60
2019-01-30T14:14:42.343Z,4.80
2019-01-30T14:16:35.161Z,4.70
2019-01-30T14:17:35.008Z,4.60
2019-01-30T14:19:27.797Z,4.70
2019-01-30T14:20:27.661Z,4.70
2019-01-30T14:22:20.438Z,4.50
2019-01-30T14:23:20.284Z,4.50
2019-01-30T14:25:13.123Z,4.70
2019-01-30T14:26:12.960Z,4.20
2019-01-30T14:28:06.325Z,4.20
2019-01-30T14:29:06.015Z,4.20
2019-01-30T14:30:58.810Z,4.00
2019-01-30T14:31:58.635Z,4.40
2019-01-30T14:33:51.442Z,4.80
2019-01-30T14:34:51.295Z,4.80
2019-01-30T14:36:44.180Z,4.90
2019-01-30T14:37:44.035Z,4.80
2019-01-30T14:39:37.023Z,5.20
2019-01-30T14:40:36.799Z,5.20
2019-01-30T14:42:29.689Z,4.50
2019-01-30T14:43:29.543Z,4.70
2019-01-30T14:45:22.320Z,4.60
2019-01-30T14:46:22.189Z,5.20
2019-01-30T14:48:15.062Z,5.10
2019-01-30T14:49:15.053Z,4.80
2019-01-30T14:51:07.708Z,5.40
2019-01-30T14:52:07.594Z,5.50
2019-01-30T14:54:00.462Z,4.90
2019-01-30T14:55:00.331Z,5.70
2019-01-30T14:56:53.122Z,6.30
2019-01-30T14:57:53.128Z,6.20
2019-01-30T14:59:45.874Z,4.90
2019-01-30T15:00:45.722Z,5.00
2019-01-30T15:02:38.500Z,4.70
2019-01-30T15:03:38.400Z,4.40
2019-01-30T15:05:31.168Z,5.00
2019-01-30T15:06:31.028Z,4.20
2019-01-30T15:08:23.889Z,4.70
2019-01-30T15:09:23.757Z,4.80
2019-01-30T15:11:16.601Z,4.70
2019-01-30T15:12:16.426Z,5.00
2019-01-30T15:14:09.282Z,5.50
2019-01-30T15:15:09.156Z,5.60
2019-01-30T15:17:01.981Z,5.80
2019-01-30T15:18:01.842Z,5.60
2019-01-30T15:19:54.695Z,5.70
2019-01-30T15:20:54.572Z,5.90
2019-01-30T15:22:47.453Z,6.30
2019-01-30T15:23:47.327Z,6.60
2019-01-30T15:25:40.076Z,6.10
2019-01-30T15:26:39.993Z,6.60
2019-01-30T15:28:32.819Z,6.20
2019-01-30T15:29:32.704Z,6.70
2019-01-30T15:31:25.607Z,6.30
2019-01-30T15:32:25.465Z,6.50
2019-01-30T15:34:18.238Z,6.70
2019-01-30T15:35:18.121Z,7.00
2019-01-30T15:37:11.013Z,6.90
2019-01-30T15:38:10.855Z,7.00
2019-01-30T15:40:03.731Z,6.80
2019-01-30T15:41:03.588Z,6.40
2019-01-30T15:42:56.494Z,7.00
2019-01-30T15:43:56.348Z,6.60
2019-01-30T15:45:49.357Z,6.70
2019-01-30T15:46:49.193Z,6.50
2019-01-30T15:48:42.126Z,6.60
2019-01-30T15:49:41.961Z,7.10
2019-01-30T15:51:34.904Z,7.00
2019-01-30T15:52:34.717Z,6.30
2019-01-30T15:54:27.580Z,7.40
2019-01-30T15:55:27.443Z,7.10
2019-01-30T15:57:20.360Z,7.50
2019-01-30T15:58:20.211Z,6.70
2019-01-30T16:00:13.079Z,9.10
2019-01-30T16:01:13.662Z,9.20
2019-01-30T16:03:05.835Z,8.00
2019-01-30T16:04:06.139Z,7.40
2019-01-30T16:05:58.570Z,7.00
2019-01-30T16:06:58.460Z,6.50
2019-01-30T16:08:51.335Z,7.50
2019-01-30T16:09:51.192Z,7.30
2019-01-30T16:11:44.074Z,6.70
2019-01-30T16:12:43.949Z,6.50
2019-01-30T16:14:36.840Z,6.20
2019-01-30T16:15:36.703Z,6.40
2019-01-30T16:17:29.570Z,5.70
2019-01-30T16:18:29.446Z,6.20
2019-01-30T16:20:22.552Z,6.50
2019-01-30T16:21:22.424Z,6.00
2019-01-30T16:23:15.278Z,5.30
2019-01-30T16:24:15.157Z,5.80
2019-01-30T16:26:08.058Z,6.50
2019-01-30T16:27:07.890Z,6.40
2019-01-30T16:29:00.778Z,5.20
2019-01-30T16:30:00.646Z,5.10
2019-01-30T16:31:53.526Z,6.80
2019-01-30T16:32:53.394Z,7.60
2019-01-30T16:34:46.287Z,7.30
2019-01-30T16:35:55.764Z,12.80
2019-01-30T16:37:39.027Z,16.70
2019-01-30T16:38:38.901Z,15.70
2019-01-30T16:40:31.796Z,11.30
2019-01-30T16:41:31.645Z,11.20
2019-01-30T16:43:25.876Z,13.50
2019-01-30T16:44:25.726Z,12.00
2019-01-30T16:46:18.627Z,5.70
2019-01-30T16:47:18.480Z,5.70
2019-01-30T16:49:11.359Z,6.60
2019-01-30T16:50:11.233Z,6.60
2019-01-30T16:52:04.138Z,5.40
2019-01-30T16:53:03.972Z,5.60
2019-01-30T16:54:56.863Z,5.50
2019-01-30T16:55:56.724Z,5.60
2019-01-30T16:57:49.611Z,5.40
2019-01-30T16:58:49.508Z,5.50
2019-01-30T17:00:42.341Z,5.60
2019-01-30T17:01:42.225Z,5.50
2019-01-30T17:03:35.115Z,5.50
2019-01-30T17:04:34.975Z,5.90
2019-01-30T17:06:28.264Z,5.80
2019-01-30T17:07:28.133Z,6.40
2019-01-30T17:09:21.011Z,6.30
2019-01-30T17:10:20.875Z,6.30
2019-01-30T17:12:13.775Z,5.70
2019-01-30T17:13:13.629Z,5.50
2019-01-30T17:15:06.518Z,6.30
2019-01-30T17:16:06.693Z,6.00
2019-01-30T17:17:59.380Z,5.40
2019-01-30T17:18:59.251Z,5.90
2019-01-30T17:20:52.335Z,5.90
2019-01-30T17:21:52.199Z,6.20
2019-01-30T17:23:45.067Z,5.70
2019-01-30T17:24:44.959Z,5.70
2019-01-30T17:26:38.129Z,6.00
2019-01-30T17:27:37.990Z,6.20
2019-01-30T17:29:31.002Z,6.20
2019-01-30T17:30:30.740Z,5.90
2019-01-30T17:32:23.616Z,6.10
2019-01-30T17:33:23.508Z,6.40
2019-01-30T17:35:16.706Z,6.80
2019-01-30T17:36:18.583Z,6.60
2019-01-30T17:38:09.446Z,6.90
2019-01-30T17:39:09.303Z,6.30
2019-01-30T17:41:02.149Z,7.20
2019-01-30T17:42:01.998Z,6.60
2019-01-30T17:43:55.874Z,7.00
2019-01-30T17:44:55.156Z,6.30
2019-01-30T17:46:47.988Z,6.20
2019-01-30T17:47:47.868Z,6.20
2019-01-30T17:49:40.754Z,6.70
2019-01-30T17:50:40.615Z,6.20
2019-01-30T17:52:33.476Z,6.90
2019-01-30T17:53:33.355Z,6.40
2019-01-30T17:55:26.764Z,6.00
2019-01-30T17:56:26.414Z,5.80
2019-01-30T17:58:19.296Z,5.60
2019-01-30T17:59:19.194Z,5.60
2019-01-30T18:01:12.090Z,6.20
2019-01-30T18:02:11.930Z,5.70
2019-01-30T18:04:04.810Z,6.20
2019-01-30T18:05:04.659Z,6.30
2019-01-30T18:06:57.546Z,6.50
2019-01-30T18:07:57.425Z,6.20
2019-01-30T18:09:50.304Z,6.20
2019-01-30T18:10:50.152Z,6.30
2019-01-30T18:12:43.027Z,6.70
2019-01-30T18:13:45.118Z,6.70
2019-01-30T18:15:35.790Z,8.10
2019-01-30T18:16:35.655Z,8.00
2019-01-30T18:18:28.545Z,7.00
2019-01-30T18:19:28.421Z,6.70
2019-01-30T18:21:21.283Z,6.70
2019-01-30T18:22:21.159Z,6.30
2019-01-30T18:24:14.710Z,7.00
2019-01-30T18:25:14.531Z,7.30
2019-01-30T18:27:07.414Z,6.90
2019-01-30T18:28:07.264Z,6.80
2019-01-30T18:30:00.326Z,6.60
2019-01-30T18:31:00.027Z,6.90
2019-01-30T18:32:52.901Z,6.60
2019-01-30T18:33:53.937Z,6.80
2019-01-30T18:35:45.645Z,6.70
2019-01-30T18:36:45.541Z,6.80
2019-01-30T18:38:38.389Z,6.70
2019-01-30T18:39:38.279Z,7.00
2019-01-30T18:41:31.158Z,6.70
2019-01-30T18:42:31.020Z,6.60
2019-01-30T18:44:24.416Z,6.40
2019-01-30T18:45:24.309Z,6.20
2019-01-30T18:47:17.199Z,6.30
2019-01-30T18:48:17.053Z,6.30
2019-01-30T18:50:09.913Z,6.60
2019-01-30T18:51:09.781Z,6.30
2019-01-30T18:53:02.681Z,6.40
2019-01-30T18:54:02.525Z,6.90
2019-01-30T18:55:55.419Z,6.30
2019-01-30T18:56:55.276Z,6.80
2019-01-30T18:58:48.165Z,6.70